Time;durP1;ratioP1;P1;durP2;ratioP2;P2;SDS_P1;SDS_P2;PMS_P1;PMS_P2;Temp;Humidity;BMP_temperature;BMP_pressure;BME280_temperature;BME280_humidity;BME280_pressure;Samples;Min_cycle;Max_cycle;Signal;HPM_P1;HPM_P2
2022/09/01 00:01:19;;;;;;;1.70;1.10;;;;;;;14.91;64.77;99542.10;109412;1273;22470;-56
2022/09/01 00:03:47;;;;;;;3.50;1.20;;;;;;;14.93;64.96;99539.78;109225;1274;138347;-56
2022/09/01 00:06:21;;;;;;;3.70;1.10;;;;;;;14.95;65.04;99537.86;109311;1274;23203;-55
2022/09/01 00:08:51;;;;;;;3.50;1.40;;;;;;;14.96;65.37;99538.17;109211;1274;139427;-55
2022/09/01 00:11:19;;;;;;;3.90;1.00;;;;;;;14.98;65.67;99538.88;109211;1276;23210;-55
2022/09/01 00:13:45;;;;;;;8.80;1.30;;;;;;;15.00;65.60;99532.88;109257;1275;22556;-55
2022/09/01 00:16:14;;;;;;;5.60;1.10;;;;;;;15.01;65.64;99533.34;109056;1276;138271;-55
2022/09/01 00:18:42;;;;;;;2.10;1.20;;;;;;;15.05;65.64;99535.77;109301;1274;22474;-55
2022/09/01 00:21:09;;;;;;;5.10;1.40;;;;;;;15.05;65.63;99535.79;109227;1274;139698;-55
2022/09/01 00:23:36;;;;;;;1.60;1.20;;;;;;;15.06;64.47;99534.79;109359;1274;22457;-55
2022/09/01 00:26:03;;;;;;;3.10;1.20;;;;;;;15.10;63.49;99534.38;109369;1274;22555;-56
2022/09/01 00:28:34;;;;;;;2.30;1.40;;;;;;;15.15;62.34;99535.05;109178;1274;138638;-56
2022/09/01 00:31:00;;;;;;;3.00;1.30;;;;;;;15.23;61.70;99531.25;109347;1274;22449;-55
2022/09/01 00:33:27;;;;;;;1.50;1.00;;;;;;;15.30;61.58;99533.05;109142;1274;139113;-56
2022/09/01 00:35:54;;;;;;;3.70;1.60;;;;;;;15.35;61.57;99533.65;109335;1274;22422;-56
2022/09/01 00:38:21;;;;;;;1.60;1.20;;;;;;;15.40;60.69;99534.67;109308;1274;22479;-55
2022/09/01 00:40:48;;;;;;;3.00;1.30;;;;;;;15.44;59.86;99541.21;109212;1274;137496;-56
2022/09/01 00:43:35;;;;;;;3.80;1.40;;;;;;;15.47;59.31;99537.71;109401;1274;22475;-56
2022/09/01 00:46:03;;;;;;;5.10;1.50;;;;;;;15.48;58.72;99536.98;109249;1274;138908;-56
2022/09/01 00:48:30;;;;;;;1.20;1.00;;;;;;;15.49;58.17;99539.16;109355;1274;23264;-56
2022/09/01 00:50:58;;;;;;;3.20;1.80;;;;;;;15.50;57.99;99540.70;109262;1274;137805;-56
2022/09/01 00:53:25;;;;;;;4.60;1.50;;;;;;;15.52;57.89;99543.88;109232;1275;23026;-56
2022/09/01 00:55:52;;;;;;;2.50;1.40;;;;;;;15.53;57.71;99546.83;109288;1275;22444;-56
2022/09/01 00:58:18;;;;;;;1.90;1.40;;;;;;;15.52;57.53;99542.27;109192;1274;138195;-55
2022/09/01 01:00:45;;;;;;;4.10;1.20;;;;;;;15.52;57.37;99540.91;109083;1274;22429;-55
2022/09/01 01:03:13;;;;;;;1.80;1.40;;;;;;;15.50;57.22;99541.20;107891;1274;1614014;-55
2022/09/01 01:06:39;;;;;;;2.10;1.30;;;;;;;15.48;56.61;99538.48;101733;1309;545250;-56
2022/09/01 01:09:06;;;;;;;2.10;1.30;;;;;;;15.43;56.30;99541.45;103765;1286;140139;-56
2022/09/01 01:11:33;;;;;;;3.00;1.60;;;;;;;15.41;56.22;99538.73;103751;1289;22569;-56
2022/09/01 01:14:11;;;;;;;2.70;1.50;;;;;;;15.39;56.40;99539.63;103480;1290;22578;-55
2022/09/01 01:16:43;;;;;;;4.30;1.40;;;;;;;15.36;56.31;99536.67;108672;1279;138519;-57
2022/09/01 01:23:00;;;;;;;1.70;1.20;;;;;;;15.33;56.25;99536.42;107666;1276;1403453;-57
2022/09/01 01:24:52;;;;;;;1.50;1.10;;;;;;;15.25;56.37;99538.31;109105;1276;22594;-56
2022/09/01 01:27:20;;;;;;;3.60;1.50;;;;;;;15.20;56.25;99542.19;108983;1277;138199;-56
2022/09/01 01:29:50;;;;;;;2.80;1.20;;;;;;;15.16;56.11;99535.36;109180;1274;23272;-56
2022/09/01 01:32:19;;;;;;;4.50;1.20;;;;;;;15.12;55.74;99538.92;109172;1277;22433;-55
2022/09/01 01:34:46;;;;;;;1.90;1.10;;;;;;;15.09;55.78;99537.30;109020;1276;137353;-56
2022/09/01 01:37:14;;;;;;;1.50;1.10;;;;;;;15.06;56.06;99536.83;109220;1274;22383;-55
2022/09/01 01:39:43;;;;;;;2.20;1.40;;;;;;;15.03;56.50;99534.59;108945;1276;137334;-56
2022/09/01 01:42:11;;;;;;;3.10;1.30;;;;;;;14.99;56.66;99530.96;109184;1274;22539;-56
2022/09/01 01:44:38;;;;;;;5.10;1.20;;;;;;;14.91;57.10;99532.77;109032;1276;137473;-56
2022/09/01 01:47:11;;;;;;;2.60;1.00;;;;;;;14.81;57.49;99533.56;109103;1276;22672;-56
2022/09/01 01:49:42;;;;;;;1.70;1.10;;;;;;;14.72;58.18;99530.17;108856;1276;22443;-56
2022/09/01 01:52:11;;;;;;;1.40;1.20;;;;;;;14.61;58.30;99529.14;109103;1276;137743;-56
2022/09/01 01:54:40;;;;;;;2.30;1.60;;;;;;;14.52;58.64;99527.63;109014;1276;22433;-55
2022/09/01 01:57:07;;;;;;;1.60;1.00;;;;;;;14.43;59.06;99530.63;108854;1275;138001;-56
2022/09/01 01:59:34;;;;;;;1.70;1.20;;;;;;;14.37;59.65;99529.27;109178;1276;22510;-56
2022/09/01 02:02:02;;;;;;;2.90;1.10;;;;;;;14.29;60.11;99526.02;109019;1276;22463;-56
2022/09/01 02:04:32;;;;;;;2.40;1.60;;;;;;;14.21;60.71;99529.02;109038;1276;137663;-56
2022/09/01 02:07:05;;;;;;;5.40;1.70;;;;;;;14.11;61.01;99526.05;109205;1276;22574;-56
2022/09/01 02:09:31;;;;;;;3.10;2.10;;;;;;;14.03;61.42;99526.62;108898;1276;138835;-56
2022/09/01 02:11:58;;;;;;;2.50;2.10;;;;;;;13.93;61.75;99523.77;109189;1276;22388;-56
2022/09/01 02:14:25;;;;;;;3.10;2.00;;;;;;;13.83;62.11;99523.86;109033;1277;138320;-56
2022/09/01 02:16:54;;;;;;;5.00;3.00;;;;;;;13.72;62.75;99520.29;109175;1276;22446;-56
2022/09/01 02:19:21;;;;;;;9.20;3.80;;;;;;;13.59;63.34;99520.30;109210;1276;22449;-56
2022/09/01 02:21:53;;;;;;;7.70;3.70;;;;;;;13.50;63.90;99519.14;108892;1276;139413;-56
2022/09/01 02:24:19;;;;;;;6.70;3.90;;;;;;;13.42;64.56;99525.71;109107;1276;22474;-56
2022/09/01 02:26:47;;;;;;;7.80;3.80;;;;;;;13.32;65.10;99523.81;108966;1276;139679;-57
2022/09/01 02:29:19;;;;;;;10.20;4.50;;;;;;;13.25;65.53;99528.54;109016;1276;22491;-57
2022/09/01 02:31:48;;;;;;;17.60;6.60;;;;;;;13.21;66.02;99524.38;109223;1276;22475;-56
2022/09/01 02:34:15;;;;;;;15.90;5.90;;;;;;;13.19;66.41;99524.88;109002;1276;139884;-56
2022/09/01 02:36:46;;;;;;;12.20;6.70;;;;;;;13.18;66.81;99526.52;109122;1276;22471;-56
2022/09/01 02:39:21;;;;;;;9.10;6.10;;;;;;;13.15;67.03;99527.44;109029;1276;138081;-56
2022/09/01 02:41:49;;;;;;;13.60;7.10;;;;;;;13.11;67.51;99528.20;109193;1276;24755;-57
2022/09/01 02:44:20;;;;;;;11.00;7.60;;;;;;;13.09;67.95;99529.17;109111;1276;22558;-57
2022/09/01 02:46:49;;;;;;;16.90;9.20;;;;;;;13.10;68.17;99527.77;109146;1275;138731;-56
2022/09/01 02:49:23;;;;;;;14.90;7.90;;;;;;;13.11;68.57;99531.65;109079;1277;22406;-56
2022/09/01 02:51:56;;;;;;;26.10;9.00;;;;;;;13.13;68.62;99532.18;109010;1276;138014;-57
2022/09/01 02:54:24;;;;;;;18.20;7.70;;;;;;;13.14;68.99;99531.34;109084;1276;22464;-57
2022/09/01 02:56:53;;;;;;;13.40;8.20;;;;;;;13.11;68.92;99533.93;109016;1276;138206;-56
2022/09/01 02:59:22;;;;;;;18.10;8.40;;;;;;;13.09;68.98;99534.76;108972;1276;22444;-56
2022/09/01 03:01:50;;;;;;;18.20;9.30;;;;;;;13.06;69.36;99531.96;108995;1276;22507;-56
2022/09/01 03:04:17;;;;;;;16.30;9.70;;;;;;;13.03;69.18;99535.52;109049;1276;138403;-56
2022/09/01 03:06:44;;;;;;;14.30;8.70;;;;;;;12.98;69.42;99537.11;109036;1276;23276;-56
2022/09/01 03:09:14;;;;;;;11.50;7.70;;;;;;;12.91;69.58;99537.81;108954;1276;138024;-56
2022/09/01 03:11:43;;;;;;;14.00;8.50;;;;;;;12.87;69.84;99541.24;109024;1276;22458;-56
2022/09/01 03:14:11;;;;;;;11.50;7.60;;;;;;;12.86;69.91;99548.40;109115;1276;22441;-56
2022/09/01 03:16:38;;;;;;;12.20;7.80;;;;;;;12.84;69.98;99551.75;108877;1276;137973;-56
2022/09/01 03:19:07;;;;;;;19.00;7.80;;;;;;;12.84;70.00;99554.54;109157;1276;22540;-55
2022/09/01 03:21:35;;;;;;;15.50;7.10;;;;;;;12.85;70.09;99555.02;108926;1276;138065;-56
2022/09/01 03:24:02;;;;;;;11.60;7.50;;;;;;;12.88;69.98;99560.13;109080;1276;22513;-56
2022/09/01 03:26:29;;;;;;;11.00;7.50;;;;;;;12.91;69.85;99557.55;108918;1277;139684;-56
2022/09/01 03:28:56;;;;;;;12.70;8.00;;;;;;;12.92;69.97;99559.91;109158;1276;22481;-56
2022/09/01 03:31:26;;;;;;;19.30;12.10;;;;;;;12.91;69.97;99561.72;109061;1277;22514;-56
2022/09/01 03:33:58;;;;;;;14.40;9.80;;;;;;;12.92;69.89;99564.56;108921;1277;138980;-56
2022/09/01 03:36:32;;;;;;;16.80;8.40;;;;;;;12.94;70.06;99564.56;109020;1276;23254;-56
2022/09/01 03:38:59;;;;;;;19.90;8.90;;;;;;;12.99;70.07;99564.29;108940;1276;138201;-56
2022/09/01 03:41:27;;;;;;;15.60;10.50;;;;;;;13.05;69.88;99562.16;109049;1276;22535;-56
2022/09/01 03:43:56;;;;;;;17.30;8.80;;;;;;;13.11;69.81;99567.10;108914;1278;23337;-56
2022/09/01 03:46:26;;;;;;;17.00;7.00;;;;;;;13.15;69.93;99565.39;108933;1275;138007;-56
2022/09/01 03:48:54;;;;;;;12.70;7.00;;;;;;;13.18;69.47;99567.88;108906;1277;22453;-56
2022/09/01 03:51:21;;;;;;;16.10;7.00;;;;;;;13.21;69.82;99569.03;108981;1277;137963;-56
2022/09/01 03:53:53;;;;;;;13.70;6.80;;;;;;;13.26;69.62;99569.46;109069;1276;22589;-56
2022/09/01 03:56:26;;;;;;;21.80;7.70;;;;;;;13.29;69.52;99569.23;109076;1276;22520;-55
2022/09/01 03:58:57;;;;;;;10.70;6.20;;;;;;;13.31;69.48;99570.98;109047;1276;22435;-55
2022/09/01 04:01:25;;;;;;;13.60;6.50;;;;;;;13.31;69.32;99569.25;109067;1276;22539;-56
2022/09/01 04:03:52;;;;;;;19.90;7.20;;;;;;;13.33;69.50;99570.34;108944;1276;139644;-56
2022/09/01 04:06:22;;;;;;;12.70;6.50;;;;;;;13.36;69.17;99569.96;108957;1277;22668;-56
2022/09/01 04:08:55;;;;;;;11.80;6.50;;;;;;;13.38;69.09;99577.67;108904;1276;139190;-56
2022/09/01 04:11:24;;;;;;;14.00;6.70;;;;;;;13.41;69.09;99574.83;109194;1276;22521;-55
2022/09/01 04:13:51;;;;;;;9.70;6.00;;;;;;;13.45;69.07;99575.30;109088;1276;22455;-55
2022/09/01 04:19:18;;;;;;;10.60;6.20;;;;;;;13.56;68.90;99581.39;109156;1277;22447;-55
2022/09/01 04:21:49;;;;;;;15.60;6.60;;;;;;;13.62;68.66;99585.14;109120;1274;139144;-55
2022/09/01 04:24:17;;;;;;;11.70;6.40;;;;;;;13.69;68.35;99587.92;109180;1274;22441;-55
2022/09/01 04:26:47;;;;;;;12.00;7.00;;;;;;;13.80;67.99;99586.09;108935;1276;138591;-56
2022/09/01 04:29:17;;;;;;;12.00;6.60;;;;;;;13.96;67.98;99587.04;109077;1274;23246;-56
2022/09/01 04:31:47;;;;;;;12.30;8.10;;;;;;;14.18;67.40;99585.11;109232;1274;23183;-55
2022/09/01 04:34:15;;;;;;;12.60;7.40;;;;;;;14.44;66.67;99585.50;109017;1274;138461;-55
2022/09/01 04:36:43;;;;;;;13.80;7.30;;;;;;;14.68;66.09;99588.23;109014;1276;22425;-55
2022/09/01 04:39:12;;;;;;;13.90;7.40;;;;;;;14.94;65.55;99589.43;109023;1274;141401;-55
2022/09/01 04:41:41;;;;;;;14.80;7.80;;;;;;;15.27;64.73;99591.55;109086;1276;22564;-55
2022/09/01 04:44:08;;;;;;;16.30;8.00;;;;;;;15.62;63.67;99593.29;109130;1277;22450;-55
2022/09/01 04:46:41;;;;;;;16.40;7.50;;;;;;;15.93;62.37;99596.44;108999;1274;138316;-55
2022/09/01 04:49:09;;;;;;;14.60;7.20;;;;;;;16.14;61.21;99593.02;109041;1277;22452;-55
2022/09/01 04:51:40;;;;;;;15.70;7.70;;;;;;;16.30;60.85;99586.84;108954;1276;137702;-56
2022/09/01 04:54:11;;;;;;;13.10;7.10;;;;;;;16.49;60.42;99586.64;109065;1276;23504;-56
2022/09/01 04:56:38;;;;;;;13.00;8.00;;;;;;;16.67;59.89;99582.23;109067;1274;139195;-56
2022/09/01 04:59:10;;;;;;;12.20;7.70;;;;;;;16.78;59.00;99588.19;109153;1274;22456;-56
2022/09/01 05:01:45;;;;;;;11.10;7.20;;;;;;;16.73;58.77;99589.37;109073;1276;23113;-56
2022/09/01 05:04:16;;;;;;;11.00;6.80;;;;;;;16.63;58.94;99588.01;108889;1276;138890;-56
2022/09/01 05:06:45;;;;;;;11.30;6.30;;;;;;;16.62;59.10;99590.15;108976;1276;22529;-56
2022/09/01 05:09:12;;;;;;;10.70;6.70;;;;;;;16.68;59.17;99590.98;108925;1277;139560;-56
2022/09/01 05:12:12;;;;;;;12.90;6.60;;;;;;;16.77;58.88;99592.55;108983;1277;23903;-55
2022/09/01 05:14:45;;;;;;;10.00;6.80;;;;;;;16.86;58.49;99591.60;108982;1276;138135;-56
2022/09/01 05:17:16;;;;;;;9.70;5.50;;;;;;;16.94;58.44;99585.27;109160;1276;23243;-56
2022/09/01 05:19:43;;;;;;;11.30;6.60;;;;;;;16.99;57.60;99584.75;108995;1276;22481;-56
2022/09/01 05:22:12;;;;;;;9.00;5.40;;;;;;;16.96;57.31;99584.96;109167;1277;138060;-56
2022/09/01 05:24:42;;;;;;;9.30;5.00;;;;;;;16.95;57.38;99587.17;109158;1276;22416;-56
2022/09/01 05:27:11;;;;;;;7.50;5.30;;;;;;;17.00;57.11;99586.77;109137;1276;138331;-55
2022/09/01 05:29:40;;;;;;;7.90;4.80;;;;;;;16.98;57.11;99584.11;109221;1276;22502;-56
2022/09/01 05:32:10;;;;;;;11.30;5.10;;;;;;;16.95;57.34;99587.29;109203;1276;22568;-56
2022/09/01 05:34:38;;;;;;;9.20;5.00;;;;;;;16.88;57.38;99584.69;108812;1277;137646;-56
2022/09/01 05:37:07;;;;;;;6.20;4.10;;;;;;;16.87;57.54;99581.34;109019;1278;22464;-56
2022/09/01 05:39:36;;;;;;;6.90;4.60;;;;;;;16.92;57.47;99588.64;109057;1277;139902;-56
2022/09/01 05:42:06;;;;;;;18.90;6.00;;;;;;;16.89;57.62;99589.20;109186;1276;22462;-56
2022/09/01 05:44:35;;;;;;;8.90;4.40;;;;;;;16.75;58.11;99587.80;109081;1276;138193;-55
2022/09/01 05:47:04;;;;;;;17.70;10.10;;;;;;;16.68;58.80;99588.51;109150;1276;22448;-56
2022/09/01 05:49:31;;;;;;;10.80;6.00;;;;;;;16.65;59.14;99587.89;109227;1276;22673;-55
2022/09/01 05:52:01;;;;;;;15.60;9.60;;;;;;;16.61;59.27;99582.40;109083;1277;137625;-55
2022/09/01 05:54:31;;;;;;;19.60;9.90;;;;;;;16.57;59.12;99587.37;109203;1276;22439;-56
2022/09/01 05:56:58;;;;;;;18.40;8.40;;;;;;;16.57;58.79;99581.10;109093;1276;138253;-57
2022/09/01 05:59:45;;;;;;;14.90;6.60;;;;;;;16.58;58.99;99576.02;109015;1276;23642;-56
2022/09/01 06:02:16;;;;;;;11.50;5.80;;;;;;;16.65;58.87;99575.89;109194;1276;22497;-56
2022/09/01 06:04:43;;;;;;;11.60;5.30;;;;;;;16.67;58.35;99575.70;109088;1276;137277;-57
2022/09/01 06:07:16;;;;;;;12.80;5.50;;;;;;;16.62;58.69;99574.98;109226;1276;22525;-56
2022/09/01 06:09:49;;;;;;;12.70;4.70;;;;;;;16.63;58.91;99574.96;109073;1277;138267;-54
2022/09/01 06:12:22;;;;;;;13.50;5.00;;;;;;;16.68;58.72;99576.08;109067;1278;23232;-56
2022/09/01 06:14:51;;;;;;;9.30;3.80;;;;;;;16.75;58.22;99576.02;109055;1277;140135;-56
2022/09/01 06:17:23;;;;;;;10.80;3.70;;;;;;;16.79;58.15;99575.69;109081;1278;22535;-56
2022/09/01 06:19:52;;;;;;;4.50;3.10;;;;;;;16.84;57.99;99574.95;109209;1277;23425;-56
2022/09/01 06:22:19;;;;;;;9.10;3.20;;;;;;;16.89;56.82;99576.34;108931;1277;138221;-56
2022/09/01 06:24:47;;;;;;;7.90;3.60;;;;;;;16.89;56.19;99575.74;108984;1277;22549;-56
2022/09/01 06:27:21;;;;;;;8.20;2.90;;;;;;;16.88;54.73;99578.20;108993;1277;137597;-54
2022/09/01 06:29:52;;;;;;;18.00;5.40;;;;;;;16.84;53.84;99576.44;109172;1277;22451;-55
2022/09/01 06:32:19;;;;;;;7.60;3.40;;;;;;;16.82;52.30;99583.52;109067;1278;22536;-54
2022/09/01 06:34:50;;;;;;;4.70;3.30;;;;;;;16.81;51.13;99578.80;108918;1277;137607;-55
2022/09/01 06:37:24;;;;;;;7.10;3.20;;;;;;;16.83;51.26;99576.18;109037;1277;22494;-55
2022/09/01 06:39:53;;;;;;;6.40;3.60;;;;;;;16.90;51.58;99577.79;107596;1277;137704;-57
2022/09/01 06:42:22;;;;;;;5.50;3.10;;;;;;;16.98;51.08;99576.34;104740;1279;22594;-54
2022/09/01 06:44:56;;;;;;;5.90;4.00;;;;;;;17.06;50.62;99577.65;104557;1278;137589;-54
2022/09/01 06:47:23;;;;;;;8.90;3.40;;;;;;;17.11;49.56;99573.55;104684;1278;24277;-55
2022/09/01 06:49:50;;;;;;;5.70;3.20;;;;;;;17.12;49.58;99579.09;104651;1278;22730;-55
2022/09/01 06:52:24;;;;;;;8.80;3.40;;;;;;;17.15;49.50;99577.84;104508;1277;138468;-55
2022/09/01 06:54:52;;;;;;;7.70;3.90;;;;;;;17.17;49.31;99584.94;104497;1279;25431;-54
2022/09/01 06:57:21;;;;;;;10.30;3.80;;;;;;;17.16;49.49;99583.60;108849;1277;137651;-55
2022/09/01 07:00:16;;;;;;;7.00;4.20;;;;;;;17.21;49.64;99591.16;109040;1278;23221;-56
2022/09/01 07:02:52;;;;;;;;;;;;;;;17.24;48.87;99590.62;108992;1277;138189;-56
2022/09/01 07:05:43;;;;;;;12.20;5.00;;;;;;;17.23;48.99;99591.57;109067;1277;23234;-56
2022/09/01 07:08:48;;;;;;;12.40;4.50;;;;;;;17.27;49.49;99586.46;108955;1278;138746;-55
2022/09/01 07:11:36;;;;;;;12.50;5.20;;;;;;;17.32;49.42;99588.44;109042;1278;22441;-57
2022/09/01 07:14:24;;;;;;;12.40;5.10;;;;;;;17.37;49.49;99591.84;109075;1277;22465;-55
2022/09/01 07:16:51;;;;;;;13.00;6.20;;;;;;;17.40;49.46;99588.94;109052;1276;23188;-55
2022/09/01 07:19:38;;;;;;;12.70;5.60;;;;;;;17.44;49.39;99594.33;109162;1277;22453;-55
2022/09/01 07:22:20;;;;;;;12.60;6.00;;;;;;;17.48;48.76;99597.71;109143;1277;137751;-58
2022/09/01 07:25:11;;;;;;;9.90;5.90;;;;;;;17.48;49.48;99596.61;109105;1277;22474;-55
2022/09/01 07:28:02;;;;;;;15.30;5.70;;;;;;;17.54;49.31;99598.01;108917;1276;138876;-55
2022/09/01 07:30:30;;;;;;;9.00;4.60;;;;;;;17.60;48.75;99590.13;109154;1276;22449;-56
2022/09/01 07:32:57;;;;;;;6.90;2.90;;;;;;;17.69;48.69;99591.98;108842;1278;139319;-55
2022/09/01 07:35:45;;;;;;;10.10;4.70;;;;;;;17.79;47.30;99590.54;109079;1278;22466;-55
2022/09/01 07:38:32;;;;;;;7.20;3.90;;;;;;;17.83;46.64;99598.13;108897;1278;138093;-56
2022/09/01 07:41:20;;;;;;;9.30;4.50;;;;;;;17.83;46.88;99597.85;105094;1278;24333;-55
2022/09/01 07:44:44;;;;;;;8.10;4.90;;;;;;;17.86;47.71;99597.13;104493;1278;137577;-55
2022/09/01 07:47:29;;;;;;;8.50;5.60;;;;;;;17.86;47.27;99599.27;104732;1279;25344;-55
2022/09/01 07:50:17;;;;;;;11.70;5.10;;;;;;;17.84;47.51;99597.39;104716;1278;24034;-55
2022/09/01 07:53:05;;;;;;;11.90;5.80;;;;;;;17.84;47.37;99593.69;104780;1278;22739;-54
2022/09/01 07:55:33;;;;;;;23.30;7.00;;;;;;;17.86;47.57;99595.76;104751;1278;22600;-55
2022/09/01 07:58:00;;;;;;;11.80;6.70;;;;;;;17.88;47.52;99594.95;108952;1278;138140;-56
2022/09/01 08:00:27;;;;;;;14.40;7.70;;;;;;;17.88;46.92;99592.45;109064;1277;23386;-56
2022/09/01 08:02:57;;;;;;;9.20;6.80;;;;;;;17.88;47.33;99590.55;108989;1276;138005;-56
2022/09/01 08:05:25;;;;;;;11.60;7.60;;;;;;;17.88;46.56;99594.24;109052;1276;22432;-56
2022/09/01 08:07:53;;;;;;;12.00;6.90;;;;;;;17.86;46.48;99590.29;109293;1275;22481;-55
2022/09/01 08:10:24;;;;;;;12.40;7.20;;;;;;;17.87;46.39;99595.23;109026;1277;138430;-54
2022/09/01 08:12:51;;;;;;;14.50;9.60;;;;;;;17.85;46.37;99592.80;109167;1276;23416;-54
2022/09/01 08:15:25;;;;;;;19.50;8.70;;;;;;;17.82;46.82;99590.55;108995;1276;138928;-55
2022/09/01 08:18:12;;;;;;;22.60;12.10;;;;;;;17.77;46.17;99592.54;109038;1277;23259;-55
2022/09/01 08:20:44;;;;;;;17.70;10.70;;;;;;;17.73;46.56;99592.09;109088;1276;138307;-55
2022/09/01 08:23:25;;;;;;;15.00;7.60;;;;;;;17.72;47.37;99585.72;109076;1278;22959;-56
2022/09/01 08:25:53;;;;;;;18.70;10.50;;;;;;;17.74;46.18;99585.05;109135;1277;22461;-55
2022/09/01 08:28:20;;;;;;;16.40;10.30;;;;;;;17.74;45.94;99587.75;109044;1276;138021;-55
2022/09/01 08:30:55;;;;;;;22.90;13.40;;;;;;;17.72;46.12;99583.45;109201;1277;22558;-56
2022/09/01 08:33:24;;;;;;;24.90;14.60;;;;;;;17.71;46.37;99585.28;109028;1276;138028;-56
2022/09/01 08:35:52;;;;;;;22.00;12.50;;;;;;;17.72;46.36;99586.31;109251;1277;22534;-56
2022/09/01 08:38:20;;;;;;;13.10;8.40;;;;;;;17.72;45.99;99586.30;109062;1279;22512;-55
2022/09/01 08:40:53;;;;;;;22.40;13.10;;;;;;;17.74;45.74;99582.30;105978;1277;138369;-60
2022/09/01 08:43:45;;;;;;;29.70;17.00;;;;;;;17.77;46.16;99583.11;109211;1276;22391;-60
2022/09/01 08:46:18;;;;;;;24.40;14.00;;;;;;;17.78;46.45;99581.57;108938;1279;138675;-61
2022/09/01 08:48:49;;;;;;;28.90;14.80;;;;;;;17.77;46.55;99574.58;109058;1276;22444;-60
2022/09/01 08:52:06;;;;;;;14.70;8.10;;;;;;;17.85;46.57;99575.77;109102;1276;138085;-60
2022/09/01 08:54:40;;;;;;;17.60;12.20;;;;;;;17.93;45.75;99570.91;108939;1279;23129;-60
2022/09/01 08:57:13;;;;;;;16.80;8.80;;;;;;;18.01;45.83;99570.91;109091;1276;139725;-60
2022/09/01 09:00:19;;;;;;;40.00;23.60;;;;;;;18.11;45.06;99572.33;108769;1279;22556;-60
2022/09/01 09:03:30;;;;;;;45.50;29.30;;;;;;;18.12;45.36;99571.10;108988;1277;138338;-61
2022/09/01 09:06:36;;;;;;;49.20;31.00;;;;;;;18.16;45.95;99570.09;108649;1282;22576;-59
2022/09/01 09:09:04;;;;;;;65.80;40.70;;;;;;;18.24;45.80;99573.94;108403;1281;137955;-59
2022/09/01 09:11:44;;;;;;;72.40;40.80;;;;;;;18.32;45.60;99574.75;108511;1281;22436;-60
2022/09/01 09:14:37;;;;;;;67.70;42.90;;;;;;;18.38;45.43;99567.67;108505;1283;22482;-59
2022/09/01 09:17:04;;;;;;;81.10;47.10;;;;;;;18.43;45.10;99562.56;108704;1282;22564;-59
2022/09/01 09:19:40;;;;;;;81.40;46.00;;;;;;;18.48;45.60;99565.70;108675;1282;22520;-60
2022/09/01 09:22:12;;;;;;;73.60;47.80;;;;;;;18.57;45.73;99564.14;108326;1283;138672;-59
2022/09/01 09:24:46;;;;;;;79.90;52.10;;;;;;;18.66;45.12;99567.17;108498;1282;22593;-59
2022/09/01 09:27:30;;;;;;;80.40;53.20;;;;;;;18.68;44.78;99563.30;108262;1284;139696;-59
2022/09/01 09:29:59;;;;;;;103.80;63.30;;;;;;;18.70;44.86;99567.19;108490;1282;23037;-59
2022/09/01 09:32:47;;;;;;;82.60;50.50;;;;;;;18.68;44.49;99563.08;108449;1281;138326;-59
2022/09/01 09:35:38;;;;;;;78.70;48.20;;;;;;;18.61;44.52;99565.45;108588;1281;23277;-59
2022/09/01 09:38:22;;;;;;;77.80;48.20;;;;;;;18.57;45.33;99562.76;108719;1281;22493;-59
2022/09/01 09:41:05;;;;;;;73.60;45.20;;;;;;;18.56;45.81;99560.30;108865;1277;138227;-59
2022/09/01 09:43:49;;;;;;;67.90;43.50;;;;;;;18.57;46.62;99559.22;109134;1276;23203;-59
2022/09/01 09:46:35;;;;;;;67.70;38.40;;;;;;;18.63;46.46;99558.89;109050;1277;138024;-60
2022/09/01 09:49:08;;;;;;;52.30;32.20;;;;;;;18.66;45.48;99561.46;109207;1276;22443;-59
2022/09/01 09:51:39;;;;;;;51.20;29.10;;;;;;;18.63;45.21;99559.86;109022;1276;137593;-60
2022/09/01 09:54:20;;;;;;;26.70;15.00;;;;;;;18.60;44.96;99563.42;109265;1275;23418;-59
2022/09/01 09:56:47;;;;;;;15.40;8.80;;;;;;;18.55;44.33;99563.41;109078;1277;138906;-60
2022/09/01 09:59:23;;;;;;;11.90;6.20;;;;;;;18.45;44.12;99558.76;109280;1276;22456;-60
2022/09/01 10:02:40;;;;;;;10.70;6.70;;;;;;;18.36;44.34;99557.99;109225;1277;23196;-60
2022/09/01 10:05:28;;;;;;;11.70;5.30;;;;;;;18.35;44.64;99555.42;108421;1284;22533;-60
2022/09/01 10:07:56;;;;;;;4.00;2.20;;;;;;;18.38;44.39;99559.78;108474;1282;22467;-60
2022/09/01 10:10:37;;;;;;;4.50;2.20;;;;;;;18.43;44.87;99555.34;108310;1284;138372;-60
2022/09/01 10:13:07;;;;;;;1.50;1.30;;;;;;;18.52;44.38;99556.13;108356;1282;22586;-60
2022/09/01 10:15:34;;;;;;;3.00;1.00;;;;;;;18.59;43.63;99560.91;108317;1284;138134;-60
2022/09/01 10:18:06;;;;;;;3.00;1.30;;;;;;;18.66;43.69;99559.37;108421;1284;22486;-60
2022/09/01 10:20:57;;;;;;;2.70;1.20;;;;;;;18.74;42.94;99558.33;107930;1284;138853;-60
2022/09/01 10:23:26;;;;;;;2.30;1.10;;;;;;;18.81;42.90;99553.50;108398;1283;23185;-60
2022/09/01 10:26:37;;;;;;;2.30;1.00;;;;;;;18.87;42.82;99557.18;108410;1284;22470;-60
2022/09/01 10:29:15;;;;;;;;;;;;;;;18.95;41.71;99554.17;108473;1282;22508;-60
2022/09/01 10:31:42;;;;;;;4.70;1.60;;;;;;;18.98;41.51;99556.35;108125;1284;22370;-60
2022/09/01 10:34:29;;;;;;;3.20;1.10;;;;;;;19.01;41.39;99550.99;108319;1284;137368;-59
2022/09/01 10:36:55;;;;;;;1.80;1.30;;;;;;;19.01;41.50;99554.66;108365;1284;22565;-59
2022/09/01 10:39:24;;;;;;;2.10;1.30;;;;;;;18.98;41.52;99548.69;108110;1284;138419;-59
2022/09/01 10:41:55;;;;;;;4.80;1.30;;;;;;;18.97;41.77;99541.98;108701;1279;22494;-60
2022/09/01 10:44:30;;;;;;;6.20;1.20;;;;;;;18.96;41.53;99542.05;108984;1277;139934;-60
2022/09/01 10:46:57;;;;;;;2.50;0.90;;;;;;;18.97;41.66;99538.77;109132;1277;22492;-60
2022/09/01 10:49:30;;;;;;;2.00;1.10;;;;;;;19.01;40.23;99540.02;108938;1280;22541;-60
2022/09/01 10:51:58;;;;;;;4.50;1.10;;;;;;;19.05;39.78;99539.27;109097;1277;137689;-59
2022/09/01 10:54:39;;;;;;;1.20;0.90;;;;;;;19.06;40.09;99546.01;109164;1277;22539;-59
2022/09/01 10:57:23;;;;;;;3.70;1.00;;;;;;;19.01;40.23;99538.97;109105;1277;137124;-60
2022/09/01 10:59:56;;;;;;;5.50;1.70;;;;;;;18.97;40.99;99538.77;109176;1277;22452;-60
2022/09/01 11:02:23;;;;;;;5.10;1.80;;;;;;;18.96;41.76;99538.79;109214;1277;22467;-59
2022/09/01 11:04:54;;;;;;;3.60;1.90;;;;;;;18.94;41.62;99541.37;109201;1277;24243;-59
2022/09/01 11:07:22;;;;;;;2.70;1.30;;;;;;;18.91;41.81;99538.13;109178;1276;23440;-60
2022/09/01 11:10:32;;;;;;;2.40;1.80;;;;;;;18.93;41.62;99542.63;109067;1276;138275;-59
2022/09/01 11:13:19;;;;;;;2.60;1.80;;;;;;;18.89;41.20;99541.46;109173;1277;22658;-60
2022/09/01 11:15:47;;;;;;;3.20;2.00;;;;;;;18.80;41.34;99539.89;109102;1277;137463;-60
2022/09/01 11:18:26;;;;;;;4.10;2.30;;;;;;;18.75;41.84;99533.29;109038;1277;22465;-60
2022/09/01 11:20:54;;;;;;;3.90;2.60;;;;;;;18.76;41.63;99539.44;109054;1276;139396;-60
2022/09/01 11:23:26;;;;;;;5.50;2.60;;;;;;;18.80;39.85;99531.77;109236;1277;22508;-60
2022/09/01 11:26:04;;;;;;;7.50;3.30;;;;;;;18.82;40.13;99522.40;109041;1277;22457;-60
2022/09/01 11:28:46;;;;;;;6.50;2.60;;;;;;;18.89;40.40;99524.05;109152;1277;138341;-60
2022/09/01 11:31:38;;;;;;;5.80;3.00;;;;;;;19.00;39.87;99520.38;109240;1277;23410;-60
2022/09/01 11:34:14;;;;;;;6.90;2.40;;;;;;;19.15;39.76;99523.25;108786;1277;138332;-61
2022/09/01 11:36:47;;;;;;;5.30;2.40;;;;;;;19.27;38.79;99525.66;109256;1276;23288;-60
2022/09/01 11:39:17;;;;;;;11.50;5.00;;;;;;;19.32;38.68;99521.44;109037;1277;137770;-60
2022/09/01 11:41:49;;;;;;;15.90;7.20;;;;;;;19.36;38.65;99520.60;109261;1277;22556;-60
2022/09/01 11:44:39;;;;;;;20.20;7.30;;;;;;;19.40;38.41;99515.86;109233;1277;23216;-60
2022/09/01 11:47:35;;;;;;;13.20;8.90;;;;;;;19.44;38.94;99520.86;109048;1277;23291;-60
2022/09/01 11:50:03;;;;;;;13.40;7.70;;;;;;;19.46;39.01;99524.39;109268;1277;22366;-60
2022/09/01 11:52:33;;;;;;;16.00;9.00;;;;;;;19.46;38.98;99526.73;109153;1277;137779;-60